aviador You're here:

KSHM Decoded Metar

in
Report Time2017-05-26 10:58:00
UTC Time2017-05-26 11:17:27
Flight Rules vfr VFR
Wind340° at 11 kt
W.Rank340° ranks 2
Current wind is above 340° avg. (8.7)
Visibility9999 m
Phenomena:N/A
Clouds:Few 190 Hf
Expected CloudBase > 800 ft AGL from Temp-Dew spread
CeilingNone
Temp07°C
Dew Point05°C (87% RH)
AAT1.9°C
QNH1016 hPa
Raw Report
KSHM 261058Z AUTO 34011KT 10SM FEW190 07/05 A2999 RMK AO2 SLP106
T00710047 $=

Extra information for KSHM:More info

Social comments